createdAt,value
2024-01-11T00:00:12.625Z,32.18
2024-01-11T00:00:44.142Z,32.37
2024-01-11T00:01:15.698Z,32.15
2024-01-11T00:01:47.175Z,31.99
2024-01-11T00:02:18.660Z,32.13
2024-01-11T00:02:50.182Z,32.17
2024-01-11T00:03:21.667Z,32.37
2024-01-11T00:03:53.129Z,32.35
2024-01-11T00:04:24.599Z,31.74
2024-01-11T00:04:56.213Z,31.84
2024-01-11T00:05:27.884Z,32.05
2024-01-11T00:05:59.442Z,32.05
2024-01-11T00:06:30.992Z,32.42
2024-01-11T00:07:02.515Z,32.02
2024-01-11T00:07:33.984Z,32.01
2024-01-11T00:08:05.461Z,32.02
2024-01-11T00:08:36.989Z,31.85
2024-01-11T00:09:08.504Z,32.11
2024-01-11T00:09:39.993Z,32.23
2024-01-11T00:10:11.491Z,32.11
2024-01-11T00:10:42.932Z,31.88
2024-01-11T00:11:16.523Z,32.49
2024-01-11T00:11:49.708Z,32.44
2024-01-11T00:12:21.200Z,32.41
2024-01-11T00:12:52.649Z,32.28
2024-01-11T00:13:24.084Z,32.52
2024-01-11T00:13:55.560Z,32.51
2024-01-11T00:14:27.123Z,32.04
2024-01-11T00:14:58.671Z,32.29
2024-01-11T00:15:30.178Z,32.26
2024-01-11T00:16:01.643Z,32.05
2024-01-11T00:16:33.150Z,32.11
2024-01-11T00:17:04.637Z,32.10
2024-01-11T00:17:36.236Z,32.47
2024-01-11T00:18:07.904Z,32.78
2024-01-11T00:18:39.560Z,32.49
2024-01-11T00:19:11.282Z,32.57
2024-01-11T00:19:42.786Z,32.03
2024-01-11T00:20:14.310Z,31.99
2024-01-11T00:20:45.826Z,32.13
2024-01-11T00:21:17.305Z,32.53
2024-01-11T00:21:48.757Z,32.45
2024-01-11T00:22:20.203Z,32.32
2024-01-11T00:22:51.749Z,32.29
2024-01-11T00:23:23.243Z,32.25
2024-01-11T00:23:54.760Z,31.87
2024-01-11T00:24:26.219Z,32.23
2024-01-11T00:24:57.722Z,32.50
2024-01-11T00:25:29.169Z,32.43
2024-01-11T00:26:00.709Z,32.01
2024-01-11T00:26:32.415Z,32.21
2024-01-11T00:27:03.884Z,32.20
2024-01-11T00:27:35.504Z,32.28
2024-01-11T00:28:06.961Z,31.99
2024-01-11T00:28:38.494Z,32.52
2024-01-11T00:29:10.071Z,32.13
2024-01-11T00:29:41.583Z,32.18
2024-01-11T00:30:13.099Z,32.57
2024-01-11T00:30:44.591Z,32.47
2024-01-11T00:31:16.056Z,32.07
2024-01-11T00:31:47.480Z,32.38
2024-01-11T00:32:19.094Z,32.70
2024-01-11T00:32:50.707Z,32.37
2024-01-11T00:33:22.359Z,32.34
2024-01-11T00:33:54.063Z,32.31
2024-01-11T00:34:25.634Z,32.13
2024-01-11T00:34:57.161Z,32.14
2024-01-11T00:35:28.677Z,32.03
2024-01-11T00:36:00.178Z,32.17
2024-01-11T00:36:31.635Z,32.19
2024-01-11T00:37:03.089Z,32.08
2024-01-11T00:37:34.552Z,32.27
2024-01-11T00:38:06.104Z,32.35
2024-01-11T00:38:37.749Z,32.63
2024-01-11T00:39:09.317Z,32.43
2024-01-11T00:39:40.754Z,32.50
2024-01-11T00:40:12.251Z,32.67
2024-01-11T00:40:43.705Z,32.27
2024-01-11T00:41:15.246Z,32.45
2024-01-11T00:41:46.754Z,32.34
2024-01-11T00:42:18.194Z,32.17
2024-01-11T00:42:49.642Z,32.55
2024-01-11T00:43:21.144Z,32.30
2024-01-11T00:43:52.632Z,32.38
2024-01-11T00:44:24.159Z,32.45
2024-01-11T00:44:55.621Z,32.72
2024-01-11T00:45:27.092Z,32.14
2024-01-11T00:45:58.543Z,32.44
2024-01-11T00:46:29.989Z,32.15
2024-01-11T00:47:01.464Z,32.62
2024-01-11T00:47:33.066Z,32.65
2024-01-11T00:48:04.692Z,32.09
2024-01-11T00:48:36.388Z,32.62
2024-01-11T00:49:07.987Z,32.43
2024-01-11T00:49:39.592Z,32.45
2024-01-11T00:50:11.245Z,32.06
2024-01-11T00:50:42.795Z,32.55
2024-01-11T00:51:14.294Z,32.28
2024-01-11T00:51:45.743Z,32.65
2024-01-11T00:52:17.244Z,32.46
2024-01-11T00:52:48.713Z,32.50
2024-01-11T00:53:20.198Z,32.37
2024-01-11T00:53:51.672Z,32.28
2024-01-11T00:54:23.117Z,32.52
2024-01-11T00:54:54.563Z,32.37
2024-01-11T00:55:26.002Z,32.54
2024-01-11T00:55:57.490Z,32.43
2024-01-11T00:56:29.011Z,32.53
2024-01-11T00:57:00.622Z,32.30
2024-01-11T00:57:32.077Z,32.37
2024-01-11T00:58:03.531Z,32.54
2024-01-11T00:58:34.968Z,32.21
2024-01-11T00:59:06.471Z,32.42
2024-01-11T00:59:37.973Z,32.55
2024-01-11T01:00:09.458Z,32.44
2024-01-11T01:00:40.949Z,32.26
2024-01-11T01:01:12.478Z,32.21
2024-01-11T01:01:43.954Z,32.27
2024-01-11T01:02:15.534Z,32.27
2024-01-11T01:02:47.036Z,32.64
2024-01-11T01:03:18.529Z,32.28
2024-01-11T01:03:50.047Z,32.29
2024-01-11T01:04:21.599Z,32.61
2024-01-11T01:04:53.058Z,32.33
2024-01-11T01:05:24.624Z,32.34
2024-01-11T01:05:56.286Z,32.30
2024-01-11T01:06:27.945Z,32.47
2024-01-11T01:06:59.498Z,32.40
2024-01-11T01:07:30.947Z,32.45
2024-01-11T01:08:02.468Z,32.87
2024-01-11T01:08:34.080Z,32.53
2024-01-11T01:09:05.576Z,32.31
2024-01-11T01:09:37.026Z,32.40
2024-01-11T01:10:08.494Z,32.49
2024-01-11T01:10:39.945Z,32.50
2024-01-11T01:11:11.463Z,32.51
2024-01-11T01:11:42.956Z,32.83
2024-01-11T01:12:14.434Z,32.71
2024-01-11T01:12:45.889Z,32.57
2024-01-11T01:13:17.327Z,32.25
2024-01-11T01:13:48.768Z,32.29
2024-01-11T01:14:20.258Z,32.53
2024-01-11T01:14:51.754Z,32.18
2024-01-11T01:15:23.202Z,32.70
2024-01-11T01:15:54.701Z,32.60
2024-01-11T01:16:26.183Z,32.70
2024-01-11T01:16:57.636Z,32.48
2024-01-11T01:17:29.201Z,32.73
2024-01-11T01:18:00.968Z,32.71
2024-01-11T01:18:32.665Z,32.54
2024-01-11T01:19:04.198Z,32.59
2024-01-11T01:19:36.114Z,32.83
2024-01-11T01:20:07.612Z,32.26
2024-01-11T01:20:39.283Z,32.54
2024-01-11T01:21:10.842Z,32.54
2024-01-11T01:21:42.282Z,32.32
2024-01-11T01:22:13.726Z,32.53
2024-01-11T01:22:45.169Z,32.58
2024-01-11T01:23:16.733Z,32.73
2024-01-11T01:23:48.227Z,32.57
2024-01-11T01:24:19.665Z,32.42
2024-01-11T01:24:51.141Z,32.49
2024-01-11T01:25:22.751Z,32.32
2024-01-11T01:25:54.327Z,32.24
2024-01-11T01:26:25.850Z,32.42
2024-01-11T01:26:57.343Z,32.60
2024-01-11T01:27:28.832Z,32.71
2024-01-11T01:28:00.347Z,32.69
2024-01-11T01:28:31.812Z,32.63
2024-01-11T01:29:03.293Z,32.86
2024-01-11T01:29:34.856Z,32.66
2024-01-11T01:30:06.484Z,32.56
2024-01-11T01:30:37.996Z,32.42
2024-01-11T01:31:09.503Z,32.59
2024-01-11T01:31:40.964Z,32.17
2024-01-11T01:32:12.501Z,32.34
2024-01-11T01:32:44.250Z,32.88
2024-01-11T01:33:15.990Z,32.82
2024-01-11T01:33:47.654Z,32.63
2024-01-11T01:34:19.300Z,32.80
2024-01-11T01:34:50.898Z,32.76
2024-01-11T01:35:22.417Z,32.76
2024-01-11T01:35:53.874Z,32.85
2024-01-11T01:36:25.334Z,32.39
2024-01-11T01:36:56.786Z,32.62
2024-01-11T01:37:28.248Z,32.90
2024-01-11T01:37:59.713Z,32.85
2024-01-11T01:38:31.237Z,32.68
2024-01-11T01:39:02.717Z,32.30
2024-01-11T01:39:34.242Z,32.88
2024-01-11T01:40:05.755Z,32.89
2024-01-11T01:40:37.211Z,32.64
2024-01-11T01:41:08.695Z,32.68
2024-01-11T01:41:40.234Z,32.43
2024-01-11T01:42:11.722Z,32.93
2024-01-11T01:42:43.171Z,32.71
2024-01-11T01:43:14.627Z,32.81
2024-01-11T01:43:46.085Z,32.82
2024-01-11T01:44:17.633Z,32.48
2024-01-11T01:44:49.112Z,32.87
2024-01-11T01:45:20.557Z,32.51
2024-01-11T01:45:51.997Z,33.02
2024-01-11T01:46:23.430Z,32.49
2024-01-11T01:46:55.024Z,32.97
2024-01-11T01:47:26.697Z,32.70
2024-01-11T01:47:58.387Z,32.72
2024-01-11T01:48:30.050Z,32.70
2024-01-11T01:49:01.736Z,32.98
2024-01-11T01:49:33.319Z,33.00
2024-01-11T01:50:04.830Z,32.88
2024-01-11T01:50:36.359Z,32.61
2024-01-11T01:51:07.859Z,32.50
2024-01-11T01:51:39.291Z,33.17
2024-01-11T01:52:10.804Z,32.89
2024-01-11T01:52:42.240Z,33.05
2024-01-11T01:53:13.691Z,33.24
2024-01-11T01:53:45.273Z,32.76
2024-01-11T01:54:16.842Z,32.74
2024-01-11T01:54:48.281Z,32.82
2024-01-11T01:55:19.737Z,32.83
2024-01-11T01:55:51.192Z,32.83
2024-01-11T01:56:22.740Z,32.62
2024-01-11T01:56:54.223Z,32.78
2024-01-11T01:57:25.672Z,32.94
2024-01-11T01:57:57.105Z,33.08
2024-01-11T01:58:28.614Z,33.02
2024-01-11T01:59:00.093Z,32.53
2024-01-11T01:59:31.686Z,32.87
2024-01-11T02:00:03.172Z,32.82
2024-01-11T02:00:34.615Z,33.06
2024-01-11T02:01:07.974Z,32.80
2024-01-11T02:01:41.452Z,32.58
2024-01-11T02:02:12.970Z,32.81
2024-01-11T02:02:44.571Z,32.98
2024-01-11T02:03:16.230Z,32.72
2024-01-11T02:03:47.801Z,32.78
2024-01-11T02:04:19.321Z,32.98
2024-01-11T02:04:50.762Z,32.58
2024-01-11T02:05:22.311Z,32.53
2024-01-11T02:05:53.951Z,32.71
2024-01-11T02:06:25.491Z,33.18
2024-01-11T02:06:56.987Z,32.91
2024-01-11T02:07:28.430Z,32.90
2024-01-11T02:08:00.037Z,32.71
2024-01-11T02:08:31.583Z,33.13
2024-01-11T02:09:03.088Z,32.83
2024-01-11T02:09:34.536Z,32.91
2024-01-11T02:10:05.976Z,33.04
2024-01-11T02:10:37.409Z,33.08
2024-01-11T02:11:08.860Z,32.79
2024-01-11T02:11:40.490Z,32.92
2024-01-11T02:12:12.118Z,32.82
2024-01-11T02:12:43.706Z,33.18
2024-01-11T02:13:15.238Z,33.01
2024-01-11T02:13:46.692Z,32.68
2024-01-11T02:14:18.179Z,32.92
2024-01-11T02:14:49.652Z,32.93
2024-01-11T02:15:21.094Z,32.62
2024-01-11T02:15:52.528Z,32.78
2024-01-11T02:16:23.990Z,33.13
2024-01-11T02:16:55.495Z,33.15
2024-01-11T02:17:27.142Z,33.23
2024-01-11T02:17:58.817Z,32.80
2024-01-11T02:18:30.327Z,32.66
2024-01-11T02:19:01.876Z,32.95
2024-01-11T02:19:33.410Z,33.21
2024-01-11T02:20:04.962Z,33.27
2024-01-11T02:20:36.533Z,32.94
2024-01-11T02:21:07.990Z,33.33
2024-01-11T02:21:39.421Z,33.09
2024-01-11T02:22:10.955Z,33.25
2024-01-11T02:22:42.412Z,33.00
2024-01-11T02:23:13.887Z,33.27
2024-01-11T02:23:45.356Z,33.18
2024-01-11T02:24:16.857Z,33.19
2024-01-11T02:24:48.293Z,32.82
2024-01-11T02:25:19.744Z,33.19
2024-01-11T02:25:51.189Z,33.13
2024-01-11T02:26:22.667Z,32.81
2024-01-11T02:26:54.186Z,32.99
2024-01-11T02:27:25.722Z,33.31
2024-01-11T02:27:57.180Z,33.13
2024-01-11T02:28:28.626Z,33.01
2024-01-11T02:29:00.106Z,33.31
2024-01-11T02:29:31.620Z,33.07
2024-01-11T02:30:03.116Z,32.94
2024-01-11T02:30:34.804Z,32.80
2024-01-11T02:31:06.349Z,33.15
2024-01-11T02:31:37.830Z,33.28
2024-01-11T02:32:09.546Z,33.19
2024-01-11T02:32:41.163Z,33.24
2024-01-11T02:33:12.747Z,33.21
2024-01-11T02:33:44.375Z,32.90
2024-01-11T02:34:15.895Z,33.25
2024-01-11T02:34:47.339Z,33.46
2024-01-11T02:35:18.840Z,33.18
2024-01-11T02:35:50.564Z,33.34
2024-01-11T02:36:22.158Z,33.06
2024-01-11T02:36:53.614Z,33.22
2024-01-11T02:37:25.048Z,33.25
2024-01-11T02:37:56.521Z,32.82
2024-01-11T02:38:28.047Z,33.12
2024-01-11T02:38:59.524Z,33.18
2024-01-11T02:39:30.975Z,33.27
2024-01-11T02:40:02.424Z,33.06
2024-01-11T02:40:33.879Z,33.45
2024-01-11T02:41:05.336Z,33.60
2024-01-11T02:41:36.891Z,33.31
2024-01-11T02:42:08.363Z,33.50
2024-01-11T02:42:39.796Z,32.96
2024-01-11T02:43:11.227Z,33.34
2024-01-11T02:43:42.663Z,33.01
2024-01-11T02:44:14.132Z,33.14
2024-01-11T02:44:45.608Z,33.15
2024-01-11T02:45:17.056Z,33.44
2024-01-11T02:45:48.539Z,33.08
2024-01-11T02:46:20.024Z,33.51
2024-01-11T02:46:51.484Z,33.35
2024-01-11T02:47:22.953Z,33.21
2024-01-11T02:47:54.554Z,33.57
2024-01-11T02:48:26.166Z,33.24
2024-01-11T02:48:57.729Z,33.39
2024-01-11T02:49:29.326Z,33.28
2024-01-11T02:50:00.850Z,32.95
2024-01-11T02:50:32.446Z,33.65
2024-01-11T02:51:03.928Z,33.36
2024-01-11T02:51:35.359Z,33.18
2024-01-11T02:52:06.827Z,33.54
2024-01-11T02:52:38.256Z,33.30
2024-01-11T02:53:09.745Z,33.50
2024-01-11T02:53:41.295Z,33.38
2024-01-11T02:54:12.789Z,33.05
2024-01-11T02:54:44.240Z,33.15
2024-01-11T02:55:15.769Z,33.46
2024-01-11T02:55:47.256Z,33.26
2024-01-11T02:56:18.724Z,33.15
2024-01-11T02:56:50.255Z,33.77
2024-01-11T02:57:21.745Z,33.50
2024-01-11T02:57:53.185Z,33.15
2024-01-11T02:58:24.629Z,33.46
2024-01-11T02:58:56.117Z,33.78
2024-01-11T02:59:27.624Z,33.40
2024-01-11T02:59:59.146Z,33.54
2024-01-11T03:00:30.745Z,33.67
2024-01-11T03:01:02.354Z,33.34
2024-01-11T03:01:33.878Z,33.62
2024-01-11T03:02:05.349Z,33.43
2024-01-11T03:02:36.941Z,33.40
2024-01-11T03:03:08.551Z,33.46
2024-01-11T03:03:40.042Z,33.66
2024-01-11T03:04:11.637Z,33.61
2024-01-11T03:04:43.178Z,33.13
2024-01-11T03:05:14.723Z,33.38
2024-01-11T03:05:46.343Z,33.21
2024-01-11T03:06:17.956Z,33.29
2024-01-11T03:06:49.517Z,33.25
2024-01-11T03:07:21.006Z,33.46
2024-01-11T03:07:52.453Z,33.21
2024-01-11T03:08:23.939Z,33.93
2024-01-11T03:08:55.416Z,33.48
2024-01-11T03:09:26.948Z,33.54
2024-01-11T03:09:58.436Z,33.54
2024-01-11T03:10:29.878Z,33.21
2024-01-11T03:11:01.341Z,33.44
2024-01-11T03:11:32.860Z,33.44
2024-01-11T03:12:04.316Z,33.71
2024-01-11T03:12:35.748Z,33.88
2024-01-11T03:13:07.194Z,33.83
2024-01-11T03:13:38.648Z,33.46
2024-01-11T03:14:10.182Z,33.14
2024-01-11T03:14:41.853Z,33.44
2024-01-11T03:15:13.422Z,33.51
2024-01-11T03:15:44.866Z,33.60
2024-01-11T03:16:16.309Z,33.78
2024-01-11T03:16:47.744Z,33.36
2024-01-11T03:17:19.278Z,33.54
2024-01-11T03:17:50.854Z,33.61
2024-01-11T03:18:22.523Z,33.67
2024-01-11T03:18:54.244Z,33.89
2024-01-11T03:19:25.857Z,33.69
2024-01-11T03:19:57.373Z,33.88
2024-01-11T03:20:28.961Z,33.64
2024-01-11T03:21:00.438Z,34.03
2024-01-11T03:21:31.900Z,33.60
2024-01-11T03:22:03.359Z,33.96
2024-01-11T03:22:34.818Z,33.48
2024-01-11T03:23:06.282Z,34.00
2024-01-11T03:23:37.828Z,33.81
2024-01-11T03:24:09.362Z,34.09
2024-01-11T03:24:40.835Z,34.16
2024-01-11T03:25:12.279Z,33.73
2024-01-11T03:25:43.719Z,33.54
2024-01-11T03:26:15.260Z,34.12
2024-01-11T03:26:46.767Z,33.80
2024-01-11T03:27:18.219Z,33.44
2024-01-11T03:27:49.658Z,33.80
2024-01-11T03:28:21.213Z,33.40
2024-01-11T03:28:52.679Z,33.56
2024-01-11T03:29:24.174Z,33.82
2024-01-11T03:29:55.641Z,33.59
2024-01-11T03:30:27.121Z,33.70
2024-01-11T03:30:58.643Z,33.96
2024-01-11T03:31:30.083Z,33.73
2024-01-11T03:32:01.590Z,33.48
2024-01-11T03:32:33.127Z,34.11
2024-01-11T03:33:04.825Z,33.59
2024-01-11T03:33:36.556Z,34.09
2024-01-11T03:34:08.160Z,33.69
2024-01-11T03:34:39.723Z,33.86
2024-01-11T03:35:11.247Z,33.75
2024-01-11T03:35:42.748Z,33.50
2024-01-11T03:36:14.207Z,33.67
2024-01-11T03:36:45.665Z,33.39
2024-01-11T03:37:17.113Z,33.57
2024-01-11T03:37:48.628Z,33.63
2024-01-11T03:38:20.154Z,33.73
2024-01-11T03:38:52.647Z,33.67
2024-01-11T03:39:24.261Z,33.61
2024-01-11T03:39:55.699Z,33.58
2024-01-11T03:40:27.148Z,33.56
2024-01-11T03:40:58.608Z,33.44
2024-01-11T03:41:30.162Z,33.67
2024-01-11T03:42:01.664Z,33.56
2024-01-11T03:42:33.129Z,34.00
2024-01-11T03:43:04.627Z,33.80
2024-01-11T03:43:36.072Z,33.64
2024-01-11T03:44:07.537Z,34.14
2024-01-11T03:44:39.215Z,33.93
2024-01-11T03:45:10.799Z,34.17
2024-01-11T03:45:42.249Z,33.83
2024-01-11T03:46:13.727Z,33.90
2024-01-11T03:46:45.163Z,33.59
2024-01-11T03:47:16.711Z,33.85
2024-01-11T03:47:48.394Z,34.06
2024-01-11T03:48:19.990Z,34.37
2024-01-11T03:48:51.618Z,33.85
2024-01-11T03:49:23.185Z,33.93
2024-01-11T03:49:54.705Z,33.80
2024-01-11T03:50:26.282Z,33.81
2024-01-11T03:50:57.747Z,33.96
2024-01-11T03:51:29.197Z,33.83
2024-01-11T03:52:00.699Z,33.74
2024-01-11T03:52:32.141Z,34.15
2024-01-11T03:53:03.603Z,33.67
2024-01-11T03:53:35.138Z,33.56
2024-01-11T03:54:06.694Z,33.90
2024-01-11T03:54:38.210Z,33.75
2024-01-11T03:55:09.722Z,33.71
2024-01-11T03:55:41.161Z,33.96
2024-01-11T03:56:12.620Z,33.91
2024-01-11T03:56:44.195Z,34.18
2024-01-11T03:57:15.681Z,33.82
2024-01-11T03:57:47.123Z,33.54
2024-01-11T03:58:18.565Z,33.98
2024-01-11T03:58:50.016Z,33.46
2024-01-11T03:59:21.509Z,33.82
2024-01-11T03:59:52.955Z,33.84
2024-01-11T04:00:24.418Z,33.83
2024-01-11T04:00:55.931Z,34.10
2024-01-11T04:01:27.462Z,33.84
2024-01-11T04:01:58.943Z,33.75
2024-01-11T04:02:30.485Z,33.67
2024-01-11T04:03:02.031Z,34.43
2024-01-11T04:03:33.597Z,34.18
2024-01-11T04:04:05.132Z,33.60
2024-01-11T04:04:36.623Z,34.05
2024-01-11T04:05:08.149Z,33.95
2024-01-11T04:05:39.784Z,34.18
2024-01-11T04:06:11.442Z,34.05
2024-01-11T04:06:43.034Z,33.80
2024-01-11T04:07:14.482Z,33.85
2024-01-11T04:07:45.917Z,33.53
2024-01-11T04:08:17.405Z,33.74
2024-01-11T04:08:48.862Z,33.73
2024-01-11T04:09:20.302Z,34.00
2024-01-11T04:09:51.741Z,33.49
2024-01-11T04:10:23.220Z,33.77
2024-01-11T04:10:54.857Z,33.89
2024-01-11T04:11:26.457Z,33.90
2024-01-11T04:11:57.911Z,33.56
2024-01-11T04:12:29.359Z,33.50
2024-01-11T04:13:00.794Z,33.84
2024-01-11T04:13:32.239Z,33.95
2024-01-11T04:14:03.708Z,33.98
2024-01-11T04:14:35.261Z,34.26
2024-01-11T04:15:06.797Z,33.67
2024-01-11T04:15:38.324Z,34.02
2024-01-11T04:16:09.810Z,34.28
2024-01-11T04:16:41.244Z,33.76
2024-01-11T04:17:12.708Z,33.70
2024-01-11T04:17:44.323Z,34.27
2024-01-11T04:18:16.006Z,34.06
2024-01-11T04:18:47.662Z,34.04
2024-01-11T04:19:22.497Z,33.85
2024-01-11T04:19:55.210Z,34.07
2024-01-11T04:20:26.788Z,33.69
2024-01-11T04:20:58.303Z,33.64
2024-01-11T04:21:29.762Z,33.93
2024-01-11T04:22:01.219Z,33.83
2024-01-11T04:22:32.697Z,33.91
2024-01-11T04:23:04.175Z,33.91
2024-01-11T04:23:35.681Z,33.92
2024-01-11T04:24:07.215Z,34.05
2024-01-11T04:24:38.655Z,33.88
2024-01-11T04:25:10.145Z,33.83
2024-01-11T04:25:41.618Z,33.73
2024-01-11T04:26:13.061Z,34.06
2024-01-11T04:26:44.556Z,33.80
2024-01-11T04:27:16.032Z,33.75
2024-01-11T04:27:47.496Z,33.75
2024-01-11T04:28:18.940Z,34.10
2024-01-11T04:28:50.389Z,33.98
2024-01-11T04:29:21.856Z,34.14
2024-01-11T04:29:53.466Z,34.19
2024-01-11T04:30:25.133Z,33.92
2024-01-11T04:30:56.689Z,33.76
2024-01-11T04:31:28.197Z,33.72
2024-01-11T04:31:59.728Z,33.73
2024-01-11T04:32:31.212Z,33.90
2024-01-11T04:33:02.857Z,33.88
2024-01-11T04:33:34.446Z,33.81
2024-01-11T04:34:06.015Z,33.65
2024-01-11T04:34:37.656Z,33.76
2024-01-11T04:35:09.273Z,33.83
2024-01-11T04:35:41.047Z,33.43
2024-01-11T04:36:12.557Z,33.96
2024-01-11T04:36:44.004Z,34.07
2024-01-11T04:37:15.464Z,34.08
2024-01-11T04:37:46.911Z,33.90
2024-01-11T04:38:18.396Z,33.58
2024-01-11T04:38:49.868Z,33.96
2024-01-11T04:39:21.370Z,34.01
2024-01-11T04:39:52.838Z,34.22
2024-01-11T04:40:24.277Z,33.63
2024-01-11T04:40:55.739Z,34.26
2024-01-11T04:41:27.274Z,33.61
2024-01-11T04:41:58.745Z,33.63
2024-01-11T04:42:30.359Z,33.96
2024-01-11T04:43:01.822Z,33.56
2024-01-11T04:43:33.292Z,34.14
2024-01-11T04:44:04.856Z,33.70
2024-01-11T04:44:36.444Z,34.21
2024-01-11T04:45:07.926Z,33.92
2024-01-11T04:45:39.382Z,33.92
2024-01-11T04:46:10.824Z,33.89
2024-01-11T04:46:42.334Z,34.12
2024-01-11T04:47:13.824Z,33.72
2024-01-11T04:47:45.475Z,34.05
2024-01-11T04:48:17.104Z,33.88
2024-01-11T04:48:48.656Z,33.92
2024-01-11T04:49:20.251Z,33.90
2024-01-11T04:49:51.716Z,33.56
2024-01-11T04:50:23.528Z,33.63
2024-01-11T04:50:55.152Z,33.67
2024-01-11T04:51:26.619Z,33.71
2024-01-11T04:51:58.065Z,33.78
2024-01-11T04:52:29.516Z,33.88
2024-01-11T04:53:00.972Z,33.56
2024-01-11T04:53:32.495Z,34.02
2024-01-11T04:54:03.997Z,33.81
2024-01-11T04:54:35.448Z,33.77
2024-01-11T04:55:06.896Z,33.91
2024-01-11T04:55:38.334Z,33.80
2024-01-11T04:56:09.826Z,34.07
2024-01-11T04:56:41.412Z,33.63
2024-01-11T04:57:12.926Z,33.68
2024-01-11T04:57:44.357Z,33.58
2024-01-11T04:58:15.852Z,34.02
2024-01-11T04:58:47.312Z,34.06
2024-01-11T04:59:18.798Z,34.10
2024-01-11T04:59:50.274Z,33.54
2024-01-11T05:00:21.726Z,33.60
2024-01-11T05:00:53.221Z,34.01
2024-01-11T05:01:24.794Z,33.97
2024-01-11T05:01:56.400Z,34.26
2024-01-11T05:02:27.902Z,33.47
2024-01-11T05:02:59.435Z,34.15
2024-01-11T05:03:30.891Z,33.99
2024-01-11T05:04:02.354Z,33.64
2024-01-11T05:04:33.861Z,33.91
2024-01-11T05:05:05.385Z,33.86
2024-01-11T05:05:37.076Z,33.90
2024-01-11T05:06:08.586Z,33.85
2024-01-11T05:06:40.103Z,33.74
2024-01-11T05:07:11.587Z,33.90
2024-01-11T05:07:43.116Z,34.14
2024-01-11T05:08:14.676Z,33.62
2024-01-11T05:08:46.230Z,34.07
2024-01-11T05:09:17.689Z,34.03
2024-01-11T05:09:49.153Z,33.80
2024-01-11T05:10:20.609Z,34.13
2024-01-11T05:10:52.054Z,33.55
2024-01-11T05:11:23.589Z,33.89
2024-01-11T05:11:55.107Z,34.12
2024-01-11T05:12:26.603Z,33.50
2024-01-11T05:12:58.050Z,33.60
2024-01-11T05:13:29.485Z,33.84
2024-01-11T05:14:00.975Z,33.59
2024-01-11T05:14:32.463Z,33.62
2024-01-11T05:15:03.922Z,34.03
2024-01-11T05:15:35.374Z,34.20
2024-01-11T05:16:06.872Z,34.14
2024-01-11T05:16:38.313Z,34.21
2024-01-11T05:17:09.830Z,33.79
2024-01-11T05:17:41.407Z,34.21
2024-01-11T05:18:12.991Z,33.92
2024-01-11T05:18:44.557Z,33.84
2024-01-11T05:19:16.160Z,34.10
2024-01-11T05:19:47.747Z,34.00
2024-01-11T05:20:19.271Z,33.89
2024-01-11T05:20:50.782Z,33.87
2024-01-11T05:21:22.294Z,33.95
2024-01-11T05:21:53.854Z,33.81
2024-01-11T05:22:25.376Z,33.73
2024-01-11T05:22:56.840Z,33.89
2024-01-11T05:23:28.318Z,34.30
2024-01-11T05:23:59.765Z,33.99
2024-01-11T05:24:31.221Z,34.06
2024-01-11T05:25:02.670Z,34.15
2024-01-11T05:25:34.125Z,33.89
2024-01-11T05:26:05.601Z,33.96
2024-01-11T05:26:37.259Z,33.84
2024-01-11T05:27:08.785Z,33.73
2024-01-11T05:27:40.247Z,33.76
2024-01-11T05:28:11.693Z,34.13
2024-01-11T05:28:43.150Z,33.90
2024-01-11T05:29:14.609Z,33.92
2024-01-11T05:29:46.061Z,33.99
2024-01-11T05:30:17.602Z,34.26
2024-01-11T05:30:49.243Z,33.71
2024-01-11T05:31:20.933Z,34.01
2024-01-11T05:31:52.792Z,34.00
2024-01-11T05:32:24.472Z,34.37
2024-01-11T05:32:56.045Z,33.89
2024-01-11T05:33:27.683Z,34.32
2024-01-11T05:33:59.418Z,33.98
2024-01-11T05:34:31.248Z,34.19
2024-01-11T05:35:02.848Z,33.82
2024-01-11T05:35:34.356Z,34.12
2024-01-11T05:36:05.850Z,33.87
2024-01-11T05:36:37.385Z,34.01
2024-01-11T05:37:08.836Z,33.65
2024-01-11T05:37:40.277Z,33.77
2024-01-11T05:38:11.836Z,34.25
2024-01-11T05:38:43.371Z,34.17
2024-01-11T05:39:14.809Z,34.03
2024-01-11T05:39:46.260Z,34.00
2024-01-11T05:40:17.712Z,33.96
2024-01-11T05:40:49.245Z,33.93
2024-01-11T05:41:20.800Z,33.52
2024-01-11T05:41:52.262Z,33.93
2024-01-11T05:42:23.705Z,33.98
2024-01-11T05:42:55.142Z,33.89
2024-01-11T05:43:26.594Z,33.93
2024-01-11T05:43:58.104Z,34.13
2024-01-11T05:44:29.568Z,33.71
2024-01-11T05:45:01.126Z,34.09
2024-01-11T05:45:45.380Z,33.70
2024-01-11T05:46:19.108Z,33.93
2024-01-11T05:46:50.581Z,33.91
2024-01-11T05:47:22.066Z,34.04
2024-01-11T05:47:53.608Z,33.97
2024-01-11T05:48:25.125Z,34.02
2024-01-11T05:48:56.684Z,33.94
2024-01-11T05:49:28.408Z,33.90
2024-01-11T05:49:59.944Z,34.21
2024-01-11T05:50:31.552Z,33.74
2024-01-11T05:51:03.009Z,33.82
2024-01-11T05:51:34.470Z,33.93
2024-01-11T05:52:05.963Z,34.02
2024-01-11T05:52:37.409Z,33.54
2024-01-11T05:53:08.861Z,33.94
2024-01-11T05:53:40.541Z,33.84
2024-01-11T05:54:12.036Z,33.90
2024-01-11T05:54:43.491Z,34.15
2024-01-11T05:55:15.039Z,33.51
2024-01-11T05:55:46.509Z,33.62
2024-01-11T05:56:17.955Z,34.16
2024-01-11T05:56:49.430Z,34.18
2024-01-11T05:57:20.897Z,33.78
2024-01-11T05:57:52.349Z,34.18
2024-01-11T05:58:23.796Z,33.84
2024-01-11T05:58:55.244Z,33.80
2024-01-11T05:59:26.719Z,33.86
2024-01-11T05:59:58.268Z,33.95
2024-01-11T06:00:29.846Z,33.81
2024-01-11T06:01:01.380Z,33.84
2024-01-11T06:01:32.864Z,33.92
2024-01-11T06:02:04.327Z,34.12
2024-01-11T06:02:35.810Z,33.65
2024-01-11T06:03:07.361Z,34.14
2024-01-11T06:03:38.839Z,33.93
2024-01-11T06:04:10.321Z,34.03
2024-01-11T06:04:41.871Z,33.64
2024-01-11T06:05:13.379Z,34.28
2024-01-11T06:05:44.993Z,34.04
2024-01-11T06:06:16.604Z,33.52
2024-01-11T06:06:48.071Z,33.75
2024-01-11T06:07:19.512Z,33.82
2024-01-11T06:07:50.950Z,33.98
2024-01-11T06:08:22.413Z,33.93
2024-01-11T06:08:53.848Z,33.88
2024-01-11T06:09:25.359Z,34.02
2024-01-11T06:09:56.828Z,34.24
2024-01-11T06:10:28.258Z,33.92
2024-01-11T06:10:59.907Z,34.31
2024-01-11T06:11:31.587Z,33.77
2024-01-11T06:12:03.031Z,33.98
2024-01-11T06:12:34.497Z,33.84
2024-01-11T06:13:05.948Z,34.09
2024-01-11T06:13:37.426Z,33.93
2024-01-11T06:14:08.937Z,33.70
2024-01-11T06:14:40.533Z,34.01
2024-01-11T06:15:12.004Z,33.88
2024-01-11T06:15:43.434Z,33.74
2024-01-11T06:16:14.869Z,33.96
2024-01-11T06:16:46.315Z,33.88
2024-01-11T06:17:17.776Z,34.03
2024-01-11T06:17:49.428Z,33.69
2024-01-11T06:18:21.084Z,33.69
2024-01-11T06:18:52.923Z,33.67
2024-01-11T06:19:24.720Z,34.10
2024-01-11T06:19:56.239Z,34.20
2024-01-11T06:20:27.739Z,34.03
2024-01-11T06:20:59.205Z,34.07
2024-01-11T06:21:30.663Z,34.19
2024-01-11T06:22:02.094Z,33.62
2024-01-11T06:22:33.543Z,33.95
2024-01-11T06:23:05.026Z,34.37
2024-01-11T06:23:36.652Z,33.92
2024-01-11T06:24:08.153Z,34.25
2024-01-11T06:24:39.717Z,33.89
2024-01-11T06:25:11.266Z,33.87
2024-01-11T06:25:42.705Z,33.90
2024-01-11T06:26:14.215Z,33.75
2024-01-11T06:26:45.732Z,33.72
2024-01-11T06:27:17.209Z,34.18
2024-01-11T06:27:48.663Z,34.37
2024-01-11T06:28:20.273Z,33.82
2024-01-11T06:28:51.743Z,34.40
2024-01-11T06:29:23.219Z,34.01
2024-01-11T06:29:54.667Z,34.05
2024-01-11T06:30:26.185Z,33.86
2024-01-11T06:30:57.827Z,33.77
2024-01-11T06:31:29.315Z,34.24
2024-01-11T06:32:00.870Z,34.31
2024-01-11T06:32:32.421Z,33.89
2024-01-11T06:33:04.108Z,33.82
2024-01-11T06:33:35.748Z,33.90
2024-01-11T06:34:07.244Z,33.95
2024-01-11T06:34:38.755Z,33.82
2024-01-11T06:35:10.324Z,34.35
2024-01-11T06:35:41.907Z,33.79
2024-01-11T06:36:13.368Z,34.21
2024-01-11T06:36:44.809Z,34.41
2024-01-11T06:37:16.260Z,33.86
2024-01-11T06:37:47.830Z,33.63
2024-01-11T06:38:19.412Z,34.08
2024-01-11T06:38:50.879Z,33.86
2024-01-11T06:39:22.358Z,33.84
2024-01-11T06:39:53.804Z,34.03
2024-01-11T06:40:25.236Z,34.22
2024-01-11T06:40:56.753Z,34.25
2024-01-11T06:41:28.315Z,34.33
2024-01-11T06:41:59.779Z,33.97
2024-01-11T06:42:31.316Z,34.30
2024-01-11T06:43:02.793Z,34.49
2024-01-11T06:43:34.407Z,33.94
2024-01-11T06:44:05.880Z,34.31
2024-01-11T06:44:37.461Z,33.97
2024-01-11T06:45:08.924Z,34.53
2024-01-11T06:45:40.366Z,34.19
2024-01-11T06:46:11.813Z,34.20